Time;durP1;ratioP1;P1;durP2;ratioP2;P2;SDS_P1;SDS_P2;PMS_P1;PMS_P2;Temp;Humidity;BMP_temperature;BMP_pressure;BME280_temperature;BME280_humidity;BME280_pressure;Samples;Min_cycle;Max_cycle;Signal;HPM_P1;HPM_P2
2021/01/24 00:00:00;;;;;;;;;;;15.60;99.90;;;14.89;100.00;100914.22;5135018;27;19927;-64
2021/01/24 00:02:27;;;;;;;;;;;15.60;99.90;;;14.90;100.00;100926.69;5135047;27;19930;-63
2021/01/24 00:04:54;;;;;;;;;;;15.60;99.90;;;14.90;100.00;100917.72;5135178;27;20058;-63
2021/01/24 00:07:22;;;;;;;;;;;15.60;99.90;;;14.90;100.00;100915.78;5135202;27;20288;-64
2021/01/24 00:09:49;;;;;;;;;;;15.60;99.90;;;14.91;100.00;100911.16;5134809;27;19927;-63
2021/01/24 00:12:16;;;;;;;;;;;15.60;99.90;;;14.91;100.00;100917.41;5134736;27;19950;-63
2021/01/24 00:14:44;;;;;;;;;;;15.60;99.90;;;14.94;100.00;100907.78;5134997;27;19927;-63
2021/01/24 00:17:11;;;;;;;;;;;15.60;99.90;;;14.92;100.00;100910.84;5134975;27;19928;-63
2021/01/24 00:19:38;;;;;;;;;;;15.60;99.90;;;14.92;100.00;100908.13;5134634;27;19931;-63
2021/01/24 00:22:05;;;;;;;;;;;15.60;99.90;;;14.91;100.00;100906.50;5134782;27;19924;-62
2021/01/24 00:24:33;;;;;;;;;;;15.60;99.90;;;14.93;100.00;100901.53;5134712;27;19924;-63
2021/01/24 00:27:00;;;;;;;;;;;15.60;99.90;;;14.91;100.00;100901.06;5134580;27;19924;-63
2021/01/24 00:29:27;;;;;;;;;;;15.60;99.90;;;14.91;100.00;100895.63;5134661;27;19931;-63
2021/01/24 00:31:56;;;;;;;;;;;15.60;99.90;;;14.91;100.00;100879.28;5134421;27;20315;-63
2021/01/24 00:34:23;;;;;;;;;;;15.60;99.90;;;14.91;100.00;100875.75;5134690;27;20372;-63
2021/01/24 00:36:50;;;;;;;;;;;15.60;99.90;;;14.91;100.00;100887.44;5134366;27;20296;-63
2021/01/24 00:39:17;;;;;;;;;;;15.60;99.90;;;14.93;100.00;100893.38;5134622;27;20170;-63
2021/01/24 00:41:44;;;;;;;;;;;15.60;99.90;;;14.90;100.00;100885.84;5134079;27;19924;-63
2021/01/24 00:44:12;;;;;;;;;;;15.60;99.90;;;14.89;100.00;100884.25;5134332;27;19992;-62
2021/01/24 00:46:39;;;;;;;;;;;15.60;99.90;;;14.89;100.00;100886.16;5134180;27;19923;-62
2021/01/24 00:49:07;;;;;;;;;;;15.60;99.90;;;14.89;100.00;100884.25;5134372;27;19931;-64
2021/01/24 00:51:34;;;;;;;;;;;15.60;99.90;;;14.89;100.00;100884.25;5133832;27;19942;-64
2021/01/24 00:54:01;;;;;;;;;;;15.60;99.90;;;14.90;100.00;100885.03;5134184;27;20304;-63
2021/01/24 00:56:29;;;;;;;;;;;15.60;99.90;;;14.88;100.00;100874.47;5134054;27;19930;-63
2021/01/24 00:58:56;;;;;;;;;;;15.60;99.90;;;14.88;100.00;100876.38;5134355;27;19930;-63
2021/01/24 01:01:23;;;;;;;;;;;15.60;99.90;;;14.89;100.00;100880.72;5133817;27;19976;-62
2021/01/24 01:03:50;;;;;;;;;;;15.60;99.90;;;14.87;100.00;100874.78;5133866;27;19924;-62
2021/01/24 01:06:18;;;;;;;;;;;15.60;99.90;;;14.87;100.00;100875.59;5133768;27;19931;-63
2021/01/24 01:08:45;;;;;;;;;;;15.60;99.90;;;14.86;100.00;100874.00;5134118;27;19927;-63
2021/01/24 01:11:13;;;;;;;;;;;15.60;99.90;;;14.88;100.00;100873.66;5133634;27;19924;-63
2021/01/24 01:13:40;;;;;;;;;;;15.60;99.90;;;14.88;100.00;100879.13;5133745;27;19923;-63
2021/01/24 01:16:07;;;;;;;;;;;15.60;99.90;;;14.88;100.00;100871.75;5133590;27;19931;-63
2021/01/24 01:18:34;;;;;;;;;;;15.60;99.90;;;14.89;100.00;100870.66;5133870;27;19957;-63
2021/01/24 01:21:01;;;;;;;;;;;15.60;99.90;;;14.89;100.00;100867.91;5133171;27;19924;-63
2021/01/24 01:23:29;;;;;;;;;;;15.60;99.90;;;14.87;100.00;100864.69;5133652;27;19927;-63
2021/01/24 01:25:57;;;;;;;;;;;15.50;99.90;;;14.88;100.00;100868.22;5133788;27;19927;-65
2021/01/24 01:28:24;;;;;;;;;;;15.60;99.90;;;14.86;100.00;100863.09;5133516;27;19928;-63
2021/01/24 01:30:51;;;;;;;;;;;15.50;99.90;;;14.86;100.00;100854.94;5133101;27;19980;-63
2021/01/24 01:33:18;;;;;;;;;;;15.50;99.90;;;14.86;100.00;100863.09;5133453;27;19924;-63
2021/01/24 01:35:46;;;;;;;;;;;15.50;99.90;;;14.86;100.00;100851.41;5133352;27;19927;-63
2021/01/24 01:38:13;;;;;;;;;;;15.50;99.90;;;14.84;100.00;100857.16;5133423;27;19927;-63
2021/01/24 01:40:41;;;;;;;;;;;15.50;99.90;;;14.84;100.00;100859.88;5132987;27;19924;-63
2021/01/24 01:43:08;;;;;;;;;;;15.50;99.90;;;14.83;100.00;100858.28;5133496;27;20010;-63
2021/01/24 01:45:35;;;;;;;;;;;15.50;99.90;;;14.84;100.00;100854.44;5133171;27;19923;-63
2021/01/24 01:48:03;;;;;;;;;;;15.50;99.90;;;14.84;100.00;100864.53;5133126;27;19928;-63
2021/01/24 01:50:30;;;;;;;;;;;15.50;99.90;;;14.84;100.00;100851.72;5132670;27;19927;-63
2021/01/24 01:53:00;;;;;;;;;;;15.50;99.90;;;14.84;100.00;100861.78;5133369;27;19977;-63
2021/01/24 01:55:27;;;;;;;;;;;15.50;99.90;;;14.84;100.00;100853.63;5132857;27;20022;-63
2021/01/24 01:57:56;;;;;;;;;;;15.50;99.90;;;14.82;100.00;100861.31;5133078;27;19927;-62
2021/01/24 02:00:24;;;;;;;;;;;15.50;99.90;;;14.82;100.00;100864.84;5132654;27;19927;-63
2021/01/24 02:03:01;;;;;;;;;;;15.50;99.90;;;14.83;100.00;100860.22;5133130;27;20318;-63
2021/01/24 02:05:34;;;;;;;;;;;15.50;99.90;;;14.84;100.00;100865.31;5133249;28;20003;-63
2021/01/24 02:08:05;;;;;;;;;;;15.50;99.90;;;14.82;100.00;100856.69;5133135;28;19923;-63
2021/01/24 02:10:37;;;;;;;;;;;15.50;99.90;;;14.83;100.00;100860.22;5132434;28;19927;-62
2021/01/24 02:13:16;;;;;;;;;;;15.50;99.90;;;14.83;100.00;100846.59;5133052;28;19935;-63
2021/01/24 02:15:45;;;;;;;;;;;15.60;99.90;;;14.82;100.00;100855.88;5132939;28;19923;-63
2021/01/24 02:18:13;;;;;;;;;;;15.50;99.90;;;14.84;100.00;100859.06;5133181;28;19924;-63
2021/01/24 02:20:45;;;;;;;;;;;15.60;99.90;;;14.83;100.00;100857.50;5132432;28;19951;-63
2021/01/24 02:23:13;;;;;;;;;;;15.50;99.90;;;14.82;100.00;100859.41;5133008;28;19923;-62
2021/01/24 02:25:45;;;;;;;;;;;15.50;99.90;;;14.82;100.00;100859.41;5132799;28;19928;-62
2021/01/24 02:28:21;;;;;;;;;;;15.60;99.90;;;14.83;100.00;100868.38;5133016;28;19923;-62
2021/01/24 02:30:50;;;;;;;;;;;15.50;99.90;;;14.82;100.00;100869.50;5132307;28;19923;-64
2021/01/24 02:33:19;;;;;;;;;;;15.60;99.90;;;14.82;100.00;100862.13;5132898;28;19934;-62
2021/01/24 02:35:51;;;;;;;;;;;15.50;99.90;;;14.82;100.00;100862.13;5132677;28;19931;-63
2021/01/24 02:38:19;;;;;;;;;;;15.60;99.90;;;14.83;100.00;100866.47;5132852;28;19928;-62
2021/01/24 02:40:47;;;;;;;;;;;15.60;99.90;;;14.84;100.00;100862.59;5132302;28;19927;-64
2021/01/24 02:43:16;;;;;;;;;;;;;;;14.83;100.00;100852.84;5132744;28;19934;-63
2021/01/24 02:45:43;;;;;;;;;;;;;;;14.83;100.00;100847.41;5132716;28;19923;-63
2021/01/24 02:48:13;;;;;;;;;;;15.50;99.90;;;14.83;100.00;100846.59;5132760;28;19923;-63
2021/01/24 02:50:41;;;;;;;;;;;15.50;99.90;;;14.83;100.00;100852.84;5132103;28;19978;-62
2021/01/24 02:53:08;;;;;;;;;;;15.50;99.90;;;14.84;100.00;100859.88;5132912;28;19927;-65
2021/01/24 02:55:36;;;;;;;;;;;15.50;99.90;;;14.85;100.00;100856.06;5132803;28;20413;-63
2021/01/24 02:58:03;;;;;;;;;;;15.50;99.90;;;14.85;100.00;100861.50;5132795;28;19976;-64
2021/01/24 03:00:31;;;;;;;;;;;15.50;99.90;;;14.85;100.00;100855.25;5132140;28;19952;-64
2021/01/24 03:02:58;;;;;;;;;;;15.50;99.90;;;14.86;100.00;100863.09;5132585;28;19930;-64
2021/01/24 03:05:26;;;;;;;;;;;15.50;99.90;;;14.86;100.00;100854.13;5132904;28;19927;-64
2021/01/24 03:07:54;;;;;;;;;;;15.50;99.90;;;14.87;100.00;100853.00;5133996;27;20419;-62
2021/01/24 03:10:21;;;;;;;;;;;15.50;99.90;;;14.87;100.00;100853.81;5136041;27;19981;-63
2021/01/24 03:12:52;;;;;;;;;;;15.50;99.90;;;14.85;100.00;100847.88;5136271;27;19923;-62
2021/01/24 03:15:21;;;;;;;;;;;15.50;99.90;;;14.85;100.00;100855.25;5136255;27;19927;-62
2021/01/24 03:17:49;;;;;;;;;;;15.50;99.90;;;14.85;100.00;100849.81;5136051;27;19935;-63
2021/01/24 03:20:17;;;;;;;;;;;15.50;99.90;;;14.85;100.00;100838.91;5135891;27;20030;-63
2021/01/24 03:22:45;;;;;;;;;;;15.50;99.90;;;14.84;100.00;100848.19;5136075;27;19968;-63
2021/01/24 03:25:14;;;;;;;;;;;15.50;99.90;;;14.84;100.00;100859.88;5136124;27;20026;-63
2021/01/24 03:27:41;;;;;;;;;;;15.50;99.90;;;14.82;100.00;100848.53;5135836;27;19923;-62
2021/01/24 03:30:09;;;;;;;;;;;15.50;99.90;;;14.82;100.00;100845.00;5135536;27;20277;-63
2021/01/24 03:32:36;;;;;;;;;;;15.50;99.90;;;14.82;100.00;100843.06;5135594;27;20051;-65
2021/01/24 03:35:05;;;;;;;;;;;15.50;99.90;;;14.81;100.00;100838.75;5135996;27;19923;-65
2021/01/24 03:37:32;;;;;;;;;;;15.50;99.90;;;14.82;100.00;100834.91;5135594;27;19930;-64
2021/01/24 03:40:00;;;;;;;;;;;15.50;99.90;;;14.82;100.00;100834.09;5135569;27;19930;-64
2021/01/24 03:42:28;;;;;;;;;;;15.50;99.90;;;14.81;100.00;100827.84;5135675;27;19923;-65
2021/01/24 03:44:56;;;;;;;;;;;15.50;99.90;;;14.81;100.00;100827.84;5135672;27;19927;-64
2021/01/24 03:47:23;;;;;;;;;;;15.50;99.90;;;14.81;100.00;100825.13;5135294;27;19928;-64
2021/01/24 03:49:50;;;;;;;;;;;15.50;99.90;;;14.81;100.00;100822.41;5135503;27;19924;-64
2021/01/24 03:52:17;;;;;;;;;;;15.50;99.90;;;14.81;100.00;100819.69;5135406;27;19927;-64
2021/01/24 03:54:44;;;;;;;;;;;15.50;99.90;;;14.81;100.00;100816.16;5135636;27;19923;-64
2021/01/24 03:57:12;;;;;;;;;;;15.50;99.90;;;14.81;100.00;100811.50;5135130;27;19931;-64
2021/01/24 03:59:40;;;;;;;;;;;15.50;99.90;;;14.61;100.00;100818.38;5135351;27;19934;-65
2021/01/24 04:02:07;;;;;;;;;;;;;;;14.38;100.00;100824.22;5135307;27;19976;-64
2021/01/24 04:04:34;;;;;;;;;;;15.00;99.90;;;14.18;100.00;100831.78;5135267;27;19980;-64
2021/01/24 04:07:01;;;;;;;;;;;14.90;99.90;;;14.10;100.00;100835.25;5135180;27;19927;-64
2021/01/24 04:09:29;;;;;;;;;;;14.80;99.90;;;14.03;100.00;100828.66;5135074;27;20293;-64
2021/01/24 04:11:56;;;;;;;;;;;14.70;99.90;;;13.97;100.00;100825.28;5135007;27;19924;-64
2021/01/24 04:14:24;;;;;;;;;;;14.60;99.90;;;13.90;100.00;100833.06;5135338;27;19976;-64
2021/01/24 04:16:51;;;;;;;;;;;14.60;99.90;;;13.85;100.00;100841.38;5134954;27;19927;-64
2021/01/24 04:19:18;;;;;;;;;;;14.50;99.90;;;13.84;100.00;100839.75;5134644;27;19930;-64
2021/01/24 04:21:46;;;;;;;;;;;;;;;13.84;100.00;100828.88;5134829;27;19927;-64
2021/01/24 04:24:15;;;;;;;;;;;;;;;13.85;100.00;100830.50;5134745;27;20172;-64
2021/01/24 04:26:43;;;;;;;;;;;;;;;13.86;100.00;100840.25;5134606;27;19923;-64
2021/01/24 04:29:11;;;;;;;;;;;;;;;13.87;100.00;100836.41;5134965;27;19951;-64
2021/01/24 04:31:43;;;;;;;;;;;;;;;13.87;100.00;100833.69;5134311;27;19931;-64
2021/01/24 04:34:14;;;;;;;;;;;;;;;13.89;100.00;100838.84;5134850;27;19924;-64
2021/01/24 04:36:41;;;;;;;;;;;;;;;13.88;100.00;100831.78;5134391;27;19935;-64
2021/01/24 04:39:08;;;;;;;;;;;;;;;13.88;100.00;100829.06;5134714;27;19927;-64
2021/01/24 04:41:37;;;;;;;;;;;;;;;13.86;100.00;100845.66;5134166;27;19924;-65
2021/01/24 04:44:04;;;;;;;;;;;14.50;99.90;;;13.85;100.00;100840.56;5134412;27;19923;-64
2021/01/24 04:46:32;;;;;;;;;;;14.50;99.90;;;13.84;100.00;100845.19;5134109;27;19927;-64
2021/01/24 04:49:00;;;;;;;;;;;14.50;99.90;;;13.85;100.00;100838.66;5134456;27;19923;-64
2021/01/24 04:51:28;;;;;;;;;;;14.50;99.90;;;13.84;100.00;100837.03;5134016;27;19924;-64
2021/01/24 04:53:55;;;;;;;;;;;14.50;99.90;;;13.87;100.00;100836.41;5134097;27;19923;-64
2021/01/24 04:56:23;;;;;;;;;;;14.50;99.90;;;13.87;100.00;100836.41;5134247;27;19931;-64
2021/01/24 04:58:51;;;;;;;;;;;14.50;99.90;;;13.88;100.00;100838.03;5134445;27;19927;-64
2021/01/24 05:01:20;;;;;;;;;;;14.50;99.90;;;13.89;100.00;100842.34;5134009;27;19927;-64
2021/01/24 05:03:48;;;;;;;;;;;14.50;99.90;;;13.89;100.00;100845.06;5134011;27;20346;-64
2021/01/24 05:06:17;;;;;;;;;;;14.50;99.90;;;13.90;100.00;100852.09;5134045;27;20391;-64
2021/01/24 05:08:44;;;;;;;;;;;14.50;99.90;;;13.89;100.00;100845.06;5134167;27;19930;-64
2021/01/24 05:11:12;;;;;;;;;;;14.60;99.90;;;13.90;100.00;100843.94;5133764;27;19924;-64
2021/01/24 05:13:39;;;;;;;;;;;14.50;99.90;;;13.90;100.00;100845.84;5133993;27;19923;-64
2021/01/24 05:16:07;;;;;;;;;;;14.50;99.90;;;13.92;100.00;100844.44;5133769;27;19938;-64
2021/01/24 05:18:35;;;;;;;;;;;14.60;99.90;;;13.92;100.00;100838.22;5133922;27;19949;-64
2021/01/24 05:21:03;;;;;;;;;;;14.60;99.90;;;13.90;100.00;100840.41;5133599;27;19923;-65
2021/01/24 05:23:36;;;;;;;;;;;14.60;99.90;;;13.81;100.00;100845.81;5134141;27;19923;-64
2021/01/24 05:26:07;;;;;;;;;;;14.50;99.90;;;13.77;100.00;100842.09;5133389;27;19923;-64
2021/01/24 05:28:34;;;;;;;;;;;14.40;99.90;;;13.76;100.00;100850.56;5133724;27;19927;-64
2021/01/24 05:31:05;;;;;;;;;;;14.40;99.90;;;13.72;100.00;100853.09;5132655;27;19928;-64
2021/01/24 05:33:32;;;;;;;;;;;14.40;99.90;;;13.73;100.00;100856.63;5133720;27;19923;-64
2021/01/24 05:35:59;;;;;;;;;;;14.40;99.90;;;13.72;100.00;100850.38;5133530;27;19927;-64
2021/01/24 05:38:28;;;;;;;;;;;14.30;99.90;;;13.71;100.00;100848.00;5133754;27;19931;-65
2021/01/24 05:40:56;;;;;;;;;;;14.30;99.90;;;13.71;100.00;100850.72;5133197;27;19923;-64
2021/01/24 05:43:27;;;;;;;;;;;14.30;99.90;;;13.68;100.00;100852.09;5133742;27;19924;-64
2021/01/24 05:45:55;;;;;;;;;;;14.30;99.90;;;13.67;100.00;100853.25;5133195;27;19953;-65
2021/01/24 05:48:22;;;;;;;;;;;14.30;99.90;;;13.69;100.00;100851.81;5133425;27;19923;-64
2021/01/24 05:50:52;;;;;;;;;;;14.30;99.90;;;13.68;100.00;100855.63;5132178;27;20352;-64
2021/01/24 05:53:20;;;;;;;;;;;14.30;99.90;;;13.72;100.00;100860.44;5133684;27;20300;-64
2021/01/24 05:55:47;;;;;;;;;;;14.30;99.90;;;13.73;100.00;100862.88;5132912;27;19930;-64
2021/01/24 05:58:20;;;;;;;;;;;14.30;99.90;;;13.74;100.00;100864.47;5133223;27;19972;-64
2021/01/24 06:00:48;;;;;;;;;;;14.40;99.90;;;13.76;100.00;100862.25;5132929;27;19923;-65
2021/01/24 06:03:16;;;;;;;;;;;14.40;99.90;;;13.77;100.00;100860.34;5133405;27;19924;-64
2021/01/24 06:05:43;;;;;;;;;;;14.40;99.90;;;13.79;100.00;100875.22;5133138;28;19946;-64
2021/01/24 06:08:11;;;;;;;;;;;14.40;99.90;;;13.79;100.00;100875.22;5132988;28;19935;-64
2021/01/24 06:10:40;;;;;;;;;;;14.40;99.90;;;13.80;100.00;100879.53;5132712;28;19927;-64
2021/01/24 06:13:10;;;;;;;;;;;14.40;99.90;;;13.79;100.00;100877.94;5133204;28;19924;-64
2021/01/24 06:15:41;;;;;;;;;;;14.40;99.90;;;13.81;100.00;100891.22;5133077;28;20288;-65
2021/01/24 06:18:14;;;;;;;;;;;14.40;99.90;;;13.82;100.00;100887.38;5133025;28;19969;-64
2021/01/24 06:20:45;;;;;;;;;;;14.40;99.90;;;13.81;100.00;100889.31;5132745;28;19923;-64
2021/01/24 06:23:17;;;;;;;;;;;14.50;99.90;;;13.83;100.00;100891.72;5133297;28;19930;-64
2021/01/24 06:25:46;;;;;;;;;;;14.50;99.90;;;13.81;100.00;100888.50;5132735;28;19924;-64
2021/01/24 06:28:20;;;;;;;;;;;14.40;99.90;;;13.83;100.00;100894.44;5132977;28;19927;-64
2021/01/24 06:30:49;;;;;;;;;;;14.40;99.90;;;13.83;100.00;100908.81;5132635;28;19986;-64
2021/01/24 06:33:17;;;;;;;;;;;14.40;99.90;;;13.83;100.00;100903.38;5133153;28;19924;-64
2021/01/24 06:35:46;;;;;;;;;;;14.50;99.90;;;13.83;100.00;100911.53;5132675;28;19928;-64
2021/01/24 06:38:27;;;;;;;;;;;14.40;99.90;;;13.82;100.00;100912.66;5132920;28;19927;-64
2021/01/24 06:40:55;;;;;;;;;;;14.40;99.90;;;13.81;100.00;100908.31;5132862;27;19946;-64
2021/01/24 06:43:38;;;;;;;;;;;14.40;99.90;;;13.80;100.00;100914.88;5137223;27;19923;-64
2021/01/24 06:46:06;;;;;;;;;;;14.40;99.90;;;13.78;100.00;100914.38;5133284;27;20377;-64
2021/01/24 06:48:45;;;;;;;;;;;14.40;99.90;;;13.79;100.00;100921.44;5136821;27;19924;-64
2021/01/24 06:51:31;;;;;;;;;;;14.40;99.90;;;13.81;100.00;100918.38;5136505;27;19992;-64
2021/01/24 06:53:58;;;;;;;;;;;14.40;99.90;;;13.80;100.00;100930.41;5136945;27;19973;-64
2021/01/24 06:56:38;;;;;;;;;;;14.40;99.90;;;13.83;100.00;100933.28;5136153;27;19924;-64
2021/01/24 06:59:05;;;;;;;;;;;14.40;99.90;;;13.85;100.00;100935.69;5136779;27;20308;-64
2021/01/24 07:01:34;;;;;;;;;;;14.40;99.90;;;13.85;100.00;100933.78;5136241;27;19923;-64
2021/01/24 07:04:41;;;;;;;;;;;14.40;99.90;;;13.85;100.00;100930.25;5136565;27;20293;-64
2021/01/24 07:07:33;;;;;;;;;;;14.40;99.90;;;13.80;100.00;100941.25;5136318;27;19928;-64
2021/01/24 07:10:01;;;;;;;;;;;14.40;99.90;;;13.72;100.00;100942.78;5136511;27;19931;-64
2021/01/24 07:12:40;;;;;;;;;;;14.40;99.90;;;13.71;100.00;100946.59;5136152;27;19935;-64
2021/01/24 07:15:11;;;;;;;;;;;14.30;99.90;;;13.71;100.00;100941.16;5136231;27;19924;-64
2021/01/24 07:17:39;;;;;;;;;;;14.30;99.90;;;13.69;100.00;100941.50;5135897;27;19924;-64
2021/01/24 07:20:08;;;;;;;;;;;14.30;99.90;;;13.68;100.00;100948.03;5136064;27;19919;-64
2021/01/24 07:22:35;;;;;;;;;;;14.20;99.90;;;13.64;100.00;100948.97;5136005;27;19924;-64
2021/01/24 07:25:03;;;;;;;;;;;14.20;99.90;;;13.59;100.00;100946.34;5136156;27;19931;-64
2021/01/24 07:27:30;;;;;;;;;;;14.20;99.90;;;13.56;100.00;100952.38;5135456;27;19924;-64
2021/01/24 07:29:58;;;;;;;;;;;14.10;99.90;;;13.51;100.00;100957.94;5135923;27;19934;-64
2021/01/24 07:32:26;;;;;;;;;;;14.10;99.90;;;13.46;100.00;100961.59;5135894;27;19928;-64
2021/01/24 07:34:55;;;;;;;;;;;14.10;99.90;;;13.46;100.00;100966.22;5135859;27;19996;-64
2021/01/24 07:37:23;;;;;;;;;;;14.00;99.90;;;13.44;100.00;100973.84;5135673;27;19923;-64
2021/01/24 07:39:51;;;;;;;;;;;14.00;99.90;;;13.39;100.00;100965.81;5135690;27;19927;-64
2021/01/24 07:42:19;;;;;;;;;;;14.00;99.90;;;13.34;100.00;100974.91;5135587;27;19928;-64
2021/01/24 07:44:46;;;;;;;;;;;13.90;99.90;;;13.29;100.00;100977.69;5135793;27;19927;-64
2021/01/24 07:47:15;;;;;;;;;;;13.80;99.90;;;13.18;100.00;100975.50;5135301;27;19931;-64
2021/01/24 07:49:42;;;;;;;;;;;13.80;99.90;;;13.12;100.00;100972.09;5135489;27;19932;-64
2021/01/24 07:52:10;;;;;;;;;;;13.70;99.90;;;13.07;100.00;100978.38;5135402;27;20288;-64
2021/01/24 07:54:38;;;;;;;;;;;13.60;99.90;;;13.08;100.00;100974.59;5134935;27;20440;-64
2021/01/24 07:57:06;;;;;;;;;;;13.60;99.90;;;13.03;100.00;100980.13;5135066;27;19927;-64
2021/01/24 07:59:33;;;;;;;;;;;13.60;99.90;;;13.02;100.00;100977.69;5135415;27;19931;-64
2021/01/24 08:02:01;;;;;;;;;;;13.50;99.90;;;12.96;100.00;100978.91;5135304;27;19931;-64
2021/01/24 08:04:28;;;;;;;;;;;13.50;99.90;;;12.91;100.00;100987.97;5135415;27;20024;-64
2021/01/24 08:06:55;;;;;;;;;;;13.40;99.90;;;12.91;100.00;100987.97;5134888;27;19928;-65
2021/01/24 08:09:24;;;;;;;;;;;13.40;99.90;;;12.91;100.00;100993.38;5135278;27;19928;-64
2021/01/24 08:11:51;;;;;;;;;;;13.40;99.90;;;12.89;100.00;100992.84;5134972;27;19964;-65
2021/01/24 08:14:18;;;;;;;;;;;13.40;99.90;;;12.89;100.00;100992.84;5135334;27;19923;-64
2021/01/24 08:16:49;;;;;;;;;;;13.40;99.90;;;12.90;100.00;100996.38;5134712;27;19928;-64
2021/01/24 08:19:18;;;;;;;;;;;13.30;99.90;;;12.90;100.00;100994.47;5135186;27;19991;-64
2021/01/24 08:21:46;;;;;;;;;;;13.40;99.90;;;12.89;100.00;100994.75;5134677;27;19928;-64
2021/01/24 08:24:14;;;;;;;;;;;13.40;99.90;;;12.92;100.00;100994.97;5135204;27;19927;-64
2021/01/24 08:26:42;;;;;;;;;;;13.40;99.90;;;12.97;100.00;100999.50;5134618;27;19931;-64
2021/01/24 08:29:10;;;;;;;;;;;13.40;99.90;;;12.94;100.00;101003.63;5134899;27;19923;-64
2021/01/24 08:31:37;;;;;;;;;;;13.40;99.90;;;12.93;100.00;100998.50;5134359;27;19976;-64
2021/01/24 08:34:04;;;;;;;;;;;13.40;99.90;;;12.89;100.00;101002.91;5134998;27;19931;-64
2021/01/24 08:36:32;;;;;;;;;;;13.40;99.90;;;12.93;100.00;100999.31;5134394;27;20323;-64
2021/01/24 08:38:59;;;;;;;;;;;13.40;99.90;;;12.93;100.00;101007.44;5134733;27;19923;-64
2021/01/24 08:41:31;;;;;;;;;;;13.40;99.90;;;12.97;100.00;101005.75;5134357;27;19931;-64
2021/01/24 08:44:08;;;;;;;;;;;13.40;99.90;;;12.97;100.00;101011.19;5134833;27;20190;-64
2021/01/24 08:46:36;;;;;;;;;;;13.50;99.90;;;12.96;100.00;101015.00;5133997;27;19927;-64
2021/01/24 08:49:06;;;;;;;;;;;13.40;99.90;;;13.00;100.00;101021.44;5134355;27;20389;-64
2021/01/24 08:51:53;;;;;;;;;;;13.50;99.90;;;13.02;100.00;101018.41;5133960;27;20369;-64
2021/01/24 08:54:25;;;;;;;;;;;13.50;99.90;;;13.08;100.00;101028.09;5134631;27;19927;-64
2021/01/24 08:56:53;;;;;;;;;;;13.50;99.90;;;13.16;100.00;101029.31;5134195;27;19932;-64
2021/01/24 08:59:26;;;;;;;;;;;13.60;99.90;;;13.20;100.00;101030.31;5133962;27;19923;-64
2021/01/24 09:01:55;;;;;;;;;;;13.60;99.90;;;13.24;100.00;101029.41;5134448;27;19928;-65
2021/01/24 09:04:26;;;;;;;;;;;13.70;99.90;;;13.29;100.00;101028.50;5133711;27;19923;-64
2021/01/24 09:07:05;;;;;;;;;;;13.70;99.90;;;13.27;100.00;101028.00;5133680;27;20261;-64
2021/01/24 09:09:33;;;;;;;;;;;13.80;99.90;;;13.31;100.00;101034.44;5133711;27;19927;-64
2021/01/24 09:12:01;;;;;;;;;;;13.80;99.90;;;13.31;100.00;101037.16;5133744;27;19976;-64
2021/01/24 09:14:29;;;;;;;;;;;13.80;99.90;;;13.30;100.00;101043.69;5134114;27;19923;-64
2021/01/24 09:17:01;;;;;;;;;;;13.80;99.90;;;13.28;100.00;101038.56;5133818;27;19924;-64
2021/01/24 09:19:28;;;;;;;;;;;13.80;99.90;;;13.36;100.00;101040.56;5133763;27;20338;-64
2021/01/24 09:21:56;;;;;;;;;;;13.80;99.90;;;13.60;100.00;101051.22;5133592;27;19923;-64
2021/01/24 09:24:23;;;;;;;;;;;14.00;99.90;;;13.85;100.00;101053.38;5134000;27;19991;-64
2021/01/24 09:26:51;;;;;;;;;;;14.20;99.90;;;14.06;100.00;101051.00;5133515;27;19928;-64
2021/01/24 09:29:18;;;;;;;;;;;14.40;99.90;;;14.17;100.00;101052.38;5133639;27;19923;-64
2021/01/24 09:31:46;;;;;;;;;;;14.50;99.90;;;14.41;100.00;101063.78;5133347;27;19927;-64
2021/01/24 09:34:14;;;;;;;;;;;;;;;14.57;100.00;101056.06;5133823;27;20403;-64
2021/01/24 09:36:42;;;;;;;;;;;15.00;99.90;;;14.72;100.00;101061.94;5133244;27;19928;-64
2021/01/24 09:39:09;;;;;;;;;;;15.20;99.90;;;14.78;100.00;101066.13;5133405;27;20295;-65
2021/01/24 09:41:36;;;;;;;;;;;15.20;99.90;;;14.86;100.00;101070.03;5133316;27;19924;-64
2021/01/24 09:44:04;;;;;;;;;;;15.30;99.90;;;14.89;100.00;101076.75;5133591;27;19931;-64
2021/01/24 09:46:32;;;;;;;;;;;;;;;14.94;100.00;101071.97;5133194;27;19928;-64
2021/01/24 09:49:01;;;;;;;;;;;;;;;15.01;100.00;101077.78;5133193;27;19980;-64
2021/01/24 09:51:29;;;;;;;;;;;;;;;15.09;100.00;101085.19;5132824;27;19927;-64
2021/01/24 09:53:59;;;;;;;;;;;;;;;15.17;100.00;101083.59;5133485;27;19935;-64
2021/01/24 09:56:26;;;;;;;;;;;15.70;99.90;;;15.23;100.00;101085.06;5133176;27;19923;-65
2021/01/24 09:58:54;;;;;;;;;;;15.70;99.90;;;15.25;100.00;101093.75;5133119;27;19927;-64
2021/01/24 10:01:21;;;;;;;;;;;15.70;99.90;;;15.29;100.00;101086.53;5133028;27;19923;-64
2021/01/24 10:03:49;;;;;;;;;;;15.80;99.90;;;15.35;100.00;101092.69;5133299;27;19934;-64
2021/01/24 10:06:19;;;;;;;;;;;15.90;99.90;;;15.37;100.00;101095.88;5132939;27;19923;-64
2021/01/24 10:08:47;;;;;;;;;;;15.90;99.90;;;15.32;100.00;101086.72;5133166;28;19927;-65
2021/01/24 10:11:14;;;;;;;;;;;15.90;99.90;;;15.26;100.00;101092.63;5132873;28;19978;-64
2021/01/24 10:13:41;;;;;;;;;;;15.80;99.90;;;15.19;100.00;101104.00;5133376;28;19931;-64
2021/01/24 10:16:09;;;;;;;;;;;15.80;99.90;;;15.10;100.00;101102.34;5133245;27;19923;-64
2021/01/24 10:18:36;;;;;;;;;;;15.70;99.90;;;15.12;100.00;101106.34;5137406;27;20398;-64
2021/01/24 10:21:04;;;;;;;;;;;15.70;99.90;;;15.35;100.00;101106.31;5137126;27;20304;-65
2021/01/24 10:23:32;;;;;;;;;;;15.90;99.90;;;15.50;100.00;101114.09;5137515;27;19980;-65
2021/01/24 10:25:59;;;;;;;;;;;16.00;99.90;;;15.52;100.00;101118.09;5137227;27;20056;-64
2021/01/24 10:28:27;;;;;;;;;;;16.10;99.90;;;15.78;100.00;101123.63;5137391;27;20405;-65
2021/01/24 10:30:54;;;;;;;;;;;16.30;99.90;;;15.96;100.00;101119.03;5136408;27;20338;-64
2021/01/24 10:33:22;;;;;;;;;;;16.50;99.90;;;16.04;100.00;101118.22;5137399;27;19935;-65
2021/01/24 10:35:50;;;;;;;;;;;16.50;99.90;;;15.94;100.00;101118.53;5136947;27;19930;-64
2021/01/24 10:38:20;;;;;;;;;;;16.50;99.90;;;15.87;100.00;101120.94;5136897;27;19976;-64
2021/01/24 10:40:48;;;;;;;;;;;16.50;99.90;;;15.73;100.00;101129.22;5136440;27;20369;-64
2021/01/24 10:43:16;;;;;;;;;;;16.30;99.90;;;15.66;100.00;101129.69;5136995;27;19924;-64
2021/01/24 10:45:43;;;;;;;;;;;16.30;99.90;;;15.52;100.00;101125.47;5136742;27;19924;-64
2021/01/24 10:48:10;;;;;;;;;;;16.10;99.90;;;15.39;100.00;101135.31;5136695;27;20342;-64
2021/01/24 10:50:39;;;;;;;;;;;16.00;99.90;;;15.36;100.00;101137.88;5136079;27;20299;-64
2021/01/24 10:53:07;;;;;;;;;;;16.00;99.90;;;15.35;100.00;101136.28;5136694;27;20280;-64
2021/01/24 10:55:34;;;;;;;;;;;15.90;99.90;;;15.43;100.00;101130.06;5136715;27;19930;-64
2021/01/24 10:58:03;;;;;;;;;;;16.00;99.90;;;15.54;100.00;101134.13;5136600;27;20365;-65
2021/01/24 11:00:30;;;;;;;;;;;16.10;99.90;;;15.67;100.00;101125.03;5135991;27;19934;-64
2021/01/24 11:02:57;;;;;;;;;;;16.20;99.90;;;15.74;100.00;101123.47;5136606;27;19976;-65
2021/01/24 11:05:25;;;;;;;;;;;16.30;99.90;;;15.86;100.00;101133.75;5136545;27;19931;-64
2021/01/24 11:07:52;;;;;;;;;;;16.40;99.90;;;15.88;100.00;101123.34;5136189;27;19976;-65
2021/01/24 11:10:19;;;;;;;;;;;16.50;99.90;;;15.79;100.00;101123.31;5135845;27;19930;-64
2021/01/24 11:12:47;;;;;;;;;;;16.40;99.90;;;15.74;100.00;101128.94;5136216;27;19927;-64